sensor_id;sensor_type;location;lat;lon;timestamp;pressure;altitude;pressure_sealevel;temperature;humidity
36190;BME280;22232;50.914;13.858;2022-10-16T00:01:37;97600.72;;;14.08;100.00
36190;BME280;22232;50.914;13.858;2022-10-16T00:04:05;97602.59;;;14.08;100.00
36190;BME280;22232;50.914;13.858;2022-10-16T00:06:33;97604.72;;;14.06;100.00
36190;BME280;22232;50.914;13.858;2022-10-16T00:09:00;97601.78;;;14.07;100.00
36190;BME280;22232;50.914;13.858;2022-10-16T00:11:31;97607.44;;;14.11;100.00
36190;BME280;22232;50.914;13.858;2022-10-16T00:14:07;97602.34;;;14.09;100.00
36190;BME280;22232;50.914;13.858;2022-10-16T00:16:36;97609.03;;;14.12;100.00
36190;BME280;22232;50.914;13.858;2022-10-16T00:19:04;97603.72;;;14.17;100.00
36190;BME280;22232;50.914;13.858;2022-10-16T00:21:32;97598.06;;;14.13;100.00
36190;BME280;22232;50.914;13.858;2022-10-16T00:24:06;97603.72;;;14.17;100.00
36190;BME280;22232;50.914;13.858;2022-10-16T00:26:36;97600.78;;;14.18;100.00
36190;BME280;22232;50.914;13.858;2022-10-16T00:29:05;97610.97;;;14.16;100.00
36190;BME280;22232;50.914;13.858;2022-10-16T00:31:33;97606.34;;;14.12;100.00
36190;BME280;22232;50.914;13.858;2022-10-16T00:34:01;97610.16;;;14.16;100.00
36190;BME280;22232;50.914;13.858;2022-10-16T00:36:28;97612.56;;;14.12;100.00
36190;BME280;22232;50.914;13.858;2022-10-16T00:38:57;97607.44;;;14.11;100.00
36190;BME280;22232;50.914;13.858;2022-10-16T00:41:32;97617.09;;;14.12;100.00
36190;BME280;22232;50.914;13.858;2022-10-16T00:47:09;97614.69;;;14.10;100.00
36190;BME280;22232;50.914;13.858;2022-10-16T00:49:37;97615.25;;;14.12;100.00
36190;BME280;22232;50.914;13.858;2022-10-16T00:52:05;97626.50;;;14.14;100.00
36190;BME280;22232;50.914;13.858;2022-10-16T00:54:33;97624.66;;;14.20;100.00
36190;BME280;22232;50.914;13.858;2022-10-16T00:57:03;97625.97;;;14.17;100.00
36190;BME280;22232;50.914;13.858;2022-10-16T00:59:39;97629.97;;;14.15;100.00
36190;BME280;22232;50.914;13.858;2022-10-16T01:02:11;97628.94;;;14.16;100.00
36190;BME280;22232;50.914;13.858;2022-10-16T01:04:42;97630.25;;;14.13;100.00
36190;BME280;22232;50.914;13.858;2022-10-16T01:10:10;97625.75;;;14.19;100.00
36190;BME280;22232;50.914;13.858;2022-10-16T01:12:45;97620.63;;;14.17;100.00
36190;BME280;22232;50.914;13.858;2022-10-16T01:18:24;97624.88;;;14.13;100.00
36190;BME280;22232;50.914;13.858;2022-10-16T01:20:59;97624.59;;;14.10;100.00
36190;BME280;22232;50.914;13.858;2022-10-16T01:23:47;97621.91;;;14.10;100.00
36190;BME280;22232;50.914;13.858;2022-10-16T01:29:09;97622.16;;;14.08;100.00
36190;BME280;22232;50.914;13.858;2022-10-16T01:31:41;97625.41;;;14.10;100.00
36190;BME280;22232;50.914;13.858;2022-10-16T01:34:17;97632.38;;;14.11;100.00
36190;BME280;22232;50.914;13.858;2022-10-16T01:37:10;97636.41;;;14.14;100.00
36190;BME280;22232;50.914;13.858;2022-10-16T01:39:42;97637.22;;;14.14;100.00
36190;BME280;22232;50.914;13.858;2022-10-16T01:42:22;97643.66;;;14.13;100.00
36190;BME280;22232;50.914;13.858;2022-10-16T01:44:52;97653.31;;;14.14;100.00
36190;BME280;22232;50.914;13.858;2022-10-16T01:47:23;97662.72;;;14.17;100.00
36190;BME280;22232;50.914;13.858;2022-10-16T01:49:54;97656.03;;;14.19;100.00
36190;BME280;22232;50.914;13.858;2022-10-16T01:52:26;97655.25;;;14.24;100.00
36190;BME280;22232;50.914;13.858;2022-10-16T01:54:56;97652.34;;;14.26;100.00
36190;BME280;22232;50.914;13.858;2022-10-16T01:57:25;97653.94;;;14.27;100.00
36190;BME280;22232;50.914;13.858;2022-10-16T01:59:58;97655.59;;;14.33;100.00
36190;BME280;22232;50.914;13.858;2022-10-16T02:02:40;97640.06;;;14.35;100.00
36190;BME280;22232;50.914;13.858;2022-10-16T02:05:33;97652.66;;;14.34;100.00
36190;BME280;22232;50.914;13.858;2022-10-16T02:08:04;97653.22;;;14.41;100.00
36190;BME280;22232;50.914;13.858;2022-10-16T02:10:32;97658.34;;;14.43;100.00
36190;BME280;22232;50.914;13.858;2022-10-16T02:13:48;97665.84;;;14.41;100.00
36190;BME280;22232;50.914;13.858;2022-10-16T02:16:18;97663.72;;;14.43;100.00
36190;BME280;22232;50.914;13.858;2022-10-16T02:18:45;97666.13;;;14.44;100.00
36190;BME280;22232;50.914;13.858;2022-10-16T02:24:39;97674.75;;;14.46;100.00
36190;BME280;22232;50.914;13.858;2022-10-16T02:26:49;97661.88;;;14.49;100.00
36190;BME280;22232;50.914;13.858;2022-10-16T02:29:23;97661.59;;;14.50;100.00
36190;BME280;22232;50.914;13.858;2022-10-16T02:31:56;97668.38;;;14.53;100.00
36190;BME280;22232;50.914;13.858;2022-10-16T02:34:27;97657.34;;;14.54;100.00
36190;BME280;22232;50.914;13.858;2022-10-16T02:36:58;97656.31;;;14.55;100.00
36190;BME280;22232;50.914;13.858;2022-10-16T02:39:28;97667.06;;;14.60;100.00
36190;BME280;22232;50.914;13.858;2022-10-16T02:41:56;97653.94;;;14.64;100.00
36190;BME280;22232;50.914;13.858;2022-10-16T02:44:23;97664.94;;;14.62;100.00
36190;BME280;22232;50.914;13.858;2022-10-16T02:46:51;97668.41;;;14.58;100.00
36190;BME280;22232;50.914;13.858;2022-10-16T02:49:19;97670.03;;;14.59;100.00
36190;BME280;22232;50.914;13.858;2022-10-16T02:51:46;97666.53;;;14.58;100.00
36190;BME280;22232;50.914;13.858;2022-10-16T02:54:14;97667.63;;;14.62;100.00
36190;BME280;22232;50.914;13.858;2022-10-16T02:56:42;97656.03;;;14.57;100.00
36190;BME280;22232;50.914;13.858;2022-10-16T02:59:09;97654.72;;;14.59;100.00
36190;BME280;22232;50.914;13.858;2022-10-16T03:01:37;97655.50;;;14.55;100.00
36190;BME280;22232;50.914;13.858;2022-10-16T03:04:05;97649.81;;;14.51;100.00
36190;BME280;22232;50.914;13.858;2022-10-16T03:06:32;97657.56;;;14.48;100.00
36190;BME280;22232;50.914;13.858;2022-10-16T03:09:00;97653.78;;;14.43;100.00
36190;BME280;22232;50.914;13.858;2022-10-16T03:11:27;97645.69;;;14.38;100.00
36190;BME280;22232;50.914;13.858;2022-10-16T03:13:55;97644.66;;;14.39;100.00
36190;BME280;22232;50.914;13.858;2022-10-16T03:16:23;97641.41;;;14.37;100.00
36190;BME280;22232;50.914;13.858;2022-10-16T03:18:50;97648.91;;;14.35;100.00
36190;BME280;22232;50.914;13.858;2022-10-16T03:21:18;97651.34;;;14.37;100.00
36190;BME280;22232;50.914;13.858;2022-10-16T03:23:45;97660.44;;;14.36;100.00
36190;BME280;22232;50.914;13.858;2022-10-16T03:26:13;97668.47;;;14.31;100.00
36190;BME280;22232;50.914;13.858;2022-10-16T03:28:41;97680.00;;;14.31;100.00
36190;BME280;22232;50.914;13.858;2022-10-16T03:31:09;97677.03;;;14.28;100.00
36190;BME280;22232;50.914;13.858;2022-10-16T03:33:36;97692.34;;;14.32;100.00
36190;BME280;22232;50.914;13.858;2022-10-16T03:36:04;97681.88;;;14.31;100.00
36190;BME280;22232;50.914;13.858;2022-10-16T03:38:31;97684.59;;;14.36;100.00
36190;BME280;22232;50.914;13.858;2022-10-16T03:40:59;97681.38;;;14.34;100.00
36190;BME280;22232;50.914;13.858;2022-10-16T03:43:27;97679.50;;;14.34;100.00
36190;BME280;22232;50.914;13.858;2022-10-16T03:45:54;97679.50;;;14.34;100.00
36190;BME280;22232;50.914;13.858;2022-10-16T03:48:22;97692.63;;;14.31;100.00
36190;BME280;22232;50.914;13.858;2022-10-16T03:50:49;97684.00;;;14.29;100.00
36190;BME280;22232;50.914;13.858;2022-10-16T03:53:18;97678.59;;;14.23;100.00
36190;BME280;22232;50.914;13.858;2022-10-16T03:55:46;97680.25;;;14.30;100.00
36190;BME280;22232;50.914;13.858;2022-10-16T03:58:13;97682.69;;;14.31;100.00
36190;BME280;22232;50.914;13.858;2022-10-16T04:00:42;97678.94;;;14.32;100.00
36190;BME280;22232;50.914;13.858;2022-10-16T04:03:11;97679.78;;;14.38;100.00
36190;BME280;22232;50.914;13.858;2022-10-16T04:05:38;97685.94;;;14.38;100.00
36190;BME280;22232;50.914;13.858;2022-10-16T04:08:06;97686.50;;;14.40;100.00
36190;BME280;22232;50.914;13.858;2022-10-16T04:10:34;97687.59;;;14.39;100.00
36190;BME280;22232;50.914;13.858;2022-10-16T04:13:01;97685.44;;;14.41;100.00
36190;BME280;22232;50.914;13.858;2022-10-16T04:15:29;97698.91;;;14.46;100.00
36190;BME280;22232;50.914;13.858;2022-10-16T04:17:56;97701.06;;;14.50;100.00
36190;BME280;22232;50.914;13.858;2022-10-16T04:20:24;97704.88;;;14.54;100.00
36190;BME280;22232;50.914;13.858;2022-10-16T04:22:51;97707.03;;;14.52;100.00
36190;BME280;22232;50.914;13.858;2022-10-16T04:25:19;97706.44;;;14.50;100.00
36190;BME280;22232;50.914;13.858;2022-10-16T04:27:47;97718.19;;;14.43;100.00
36190;BME280;22232;50.914;13.858;2022-10-16T04:30:15;97710.66;;;14.40;100.00
36190;BME280;22232;50.914;13.858;2022-10-16T04:32:42;97720.81;;;14.38;100.00
36190;BME280;22232;50.914;13.858;2022-10-16T04:35:10;97713.28;;;14.35;100.00
36190;BME280;22232;50.914;13.858;2022-10-16T04:37:37;97717.59;;;14.36;100.00
36190;BME280;22232;50.914;13.858;2022-10-16T04:40:05;97709.25;;;14.33;100.00
36190;BME280;22232;50.914;13.858;2022-10-16T04:42:33;97715.94;;;14.30;100.00
36190;BME280;22232;50.914;13.858;2022-10-16T04:45:00;97709.75;;;14.25;100.00
36190;BME280;22232;50.914;13.858;2022-10-16T04:47:28;97706.53;;;14.28;100.00
36190;BME280;22232;50.914;13.858;2022-10-16T04:49:56;97706.03;;;14.31;100.00
36190;BME280;22232;50.914;13.858;2022-10-16T04:52:24;97720.19;;;14.26;100.00
36190;BME280;22232;50.914;13.858;2022-10-16T04:54:53;97712.72;;;14.28;100.00
36190;BME280;22232;50.914;13.858;2022-10-16T04:57:21;97711.63;;;14.29;100.00
36190;BME280;22232;50.914;13.858;2022-10-16T04:59:49;97716.16;;;14.23;100.00
36190;BME280;22232;50.914;13.858;2022-10-16T05:02:16;97725.56;;;14.26;100.00
36190;BME280;22232;50.914;13.858;2022-10-16T05:04:44;97724.50;;;14.27;100.00
36190;BME280;22232;50.914;13.858;2022-10-16T05:07:12;97730.19;;;14.31;100.00
36190;BME280;22232;50.914;13.858;2022-10-16T05:09:39;97722.72;;;14.38;100.00
36190;BME280;22232;50.914;13.858;2022-10-16T05:12:07;97731.06;;;14.41;100.00
36190;BME280;22232;50.914;13.858;2022-10-16T05:14:34;97716.31;;;14.44;100.00
36190;BME280;22232;50.914;13.858;2022-10-16T05:17:02;97713.63;;;14.44;100.00
36190;BME280;22232;50.914;13.858;2022-10-16T05:19:30;97718.19;;;14.43;100.00
36190;BME280;22232;50.914;13.858;2022-10-16T05:21:57;97718.19;;;14.43;100.00
36190;BME280;22232;50.914;13.858;2022-10-16T05:24:25;97719.00;;;14.44;100.00
36190;BME280;22232;50.914;13.858;2022-10-16T05:26:52;97720.59;;;14.45;100.00
36190;BME280;22232;50.914;13.858;2022-10-16T05:29:20;97716.03;;;14.40;100.00
36190;BME280;22232;50.914;13.858;2022-10-16T05:31:52;97716.03;;;14.40;100.00
36190;BME280;22232;50.914;13.858;2022-10-16T05:34:20;97722.94;;;14.36;100.00
36190;BME280;22232;50.914;13.858;2022-10-16T05:36:48;97732.88;;;14.36;100.00
36190;BME280;22232;50.914;13.858;2022-10-16T05:39:16;97731.50;;;14.28;100.00
36190;BME280;22232;50.914;13.858;2022-10-16T05:41:43;97732.25;;;14.23;100.00
36190;BME280;22232;50.914;13.858;2022-10-16T05:44:11;97735.78;;;14.29;100.00
36190;BME280;22232;50.914;13.858;2022-10-16T05:46:39;97737.91;;;14.27;100.00
36190;BME280;22232;50.914;13.858;2022-10-16T05:49:06;97742.53;;;14.32;100.00
36190;BME280;22232;50.914;13.858;2022-10-16T05:51:34;97752.19;;;14.33;100.00
36190;BME280;22232;50.914;13.858;2022-10-16T05:54:01;97757.53;;;14.33;100.00
36190;BME280;22232;50.914;13.858;2022-10-16T05:56:29;97758.63;;;14.32;100.00
36190;BME280;22232;50.914;13.858;2022-10-16T05:58:56;97761.28;;;14.32;100.00
36190;BME280;22232;50.914;13.858;2022-10-16T06:01:24;97768.28;;;14.33;100.00
36190;BME280;22232;50.914;13.858;2022-10-16T06:03:52;97780.94;;;14.37;100.00
36190;BME280;22232;50.914;13.858;2022-10-16T06:06:23;97784.19;;;14.39;100.00
36190;BME280;22232;50.914;13.858;2022-10-16T06:08:52;97789.53;;;14.39;100.00
36190;BME280;22232;50.914;13.858;2022-10-16T06:11:28;97793.06;;;14.45;100.00
36190;BME280;22232;50.914;13.858;2022-10-16T06:13:58;97795.22;;;14.48;100.00
36190;BME280;22232;50.914;13.858;2022-10-16T06:16:26;97794.56;;;14.58;100.00
36190;BME280;22232;50.914;13.858;2022-10-16T06:18:55;97790.88;;;14.69;100.00
36190;BME280;22232;50.914;13.858;2022-10-16T06:21:24;97789.59;;;14.77;100.00
36190;BME280;22232;50.914;13.858;2022-10-16T06:23:53;97791.50;;;14.81;100.00
36190;BME280;22232;50.914;13.858;2022-10-16T06:26:23;97788.63;;;14.93;100.00
36190;BME280;22232;50.914;13.858;2022-10-16T06:28:53;97786.72;;;14.94;100.00
36190;BME280;22232;50.914;13.858;2022-10-16T06:31:21;97792.44;;;15.02;100.00
36190;BME280;22232;50.914;13.858;2022-10-16T06:33:52;97799.78;;;15.17;100.00
36190;BME280;22232;50.914;13.858;2022-10-16T06:36:20;97808.44;;;15.29;100.00
36190;BME280;22232;50.914;13.858;2022-10-16T06:38:48;97792.94;;;15.47;100.00
36190;BME280;22232;50.914;13.858;2022-10-16T06:41:18;97801.03;;;15.57;100.00
36190;BME280;22232;50.914;13.858;2022-10-16T06:43:47;97798.19;;;15.74;100.00
36190;BME280;22232;50.914;13.858;2022-10-16T06:46:18;97795.50;;;15.84;100.00
36190;BME280;22232;50.914;13.858;2022-10-16T06:48:46;97803.91;;;15.98;100.00
36190;BME280;22232;50.914;13.858;2022-10-16T06:51:18;97816.53;;;16.13;100.00
36190;BME280;22232;50.914;13.858;2022-10-16T06:53:48;97805.28;;;16.31;100.00
36190;BME280;22232;50.914;13.858;2022-10-16T06:56:32;97815.81;;;16.38;100.00
36190;BME280;22232;50.914;13.858;2022-10-16T06:59:01;97819.00;;;16.40;100.00
36190;BME280;22232;50.914;13.858;2022-10-16T07:01:29;97816.06;;;16.36;100.00
36190;BME280;22232;50.914;13.858;2022-10-16T07:03:57;97820.38;;;16.32;100.00
36190;BME280;22232;50.914;13.858;2022-10-16T07:06:26;97822.25;;;16.37;100.00
36190;BME280;22232;50.914;13.858;2022-10-16T07:08:54;97827.91;;;16.45;100.00
36190;BME280;22232;50.914;13.858;2022-10-16T07:11:23;97832.47;;;16.55;100.00
36190;BME280;22232;50.914;13.858;2022-10-16T07:13:51;97840.84;;;16.69;100.00
36190;BME280;22232;50.914;13.858;2022-10-16T07:16:27;97843.81;;;16.72;100.00
36190;BME280;22232;50.914;13.858;2022-10-16T07:19:00;97847.06;;;16.90;100.00
36190;BME280;22232;50.914;13.858;2022-10-16T07:21:30;97851.91;;;17.03;100.00
36190;BME280;22232;50.914;13.858;2022-10-16T07:24:10;97853.25;;;17.11;100.00
36190;BME280;22232;50.914;13.858;2022-10-16T07:26:39;97854.59;;;17.08;100.00
36190;BME280;22232;50.914;13.858;2022-10-16T07:29:11;97863.75;;;17.17;100.00
36190;BME280;22232;50.914;13.858;2022-10-16T07:31:39;97860.25;;;17.17;100.00
36190;BME280;22232;50.914;13.858;2022-10-16T07:34:07;97874.00;;;17.15;100.00
36190;BME280;22232;50.914;13.858;2022-10-16T07:36:35;97874.28;;;17.14;100.00
36190;BME280;22232;50.914;13.858;2022-10-16T07:39:03;97881.00;;;17.06;100.00
36190;BME280;22232;50.914;13.858;2022-10-16T07:41:31;97882.88;;;17.16;100.00
36190;BME280;22232;50.914;13.858;2022-10-16T07:44:00;97885.03;;;17.19;100.00
36190;BME280;22232;50.914;13.858;2022-10-16T07:46:28;97889.06;;;17.27;100.00
36190;BME280;22232;50.914;13.858;2022-10-16T07:48:55;97888.81;;;17.23;100.00
36190;BME280;22232;50.914;13.858;2022-10-16T07:51:24;97879.59;;;17.34;100.00
36190;BME280;22232;50.914;13.858;2022-10-16T07:53:53;97882.94;;;18.01;100.00
36190;BME280;22232;50.914;13.858;2022-10-16T07:56:21;97886.38;;;18.62;100.00
36190;BME280;22232;50.914;13.858;2022-10-16T07:58:50;97887.06;;;18.83;100.00
36190;BME280;22232;50.914;13.858;2022-10-16T08:01:18;97890.09;;;18.71;100.00
36190;BME280;22232;50.914;13.858;2022-10-16T08:03:49;97891.50;;;18.63;100.00
36190;BME280;22232;50.914;13.858;2022-10-16T08:06:18;97905.44;;;18.41;100.00
36190;BME280;22232;50.914;13.858;2022-10-16T08:08:53;97898.19;;;18.31;100.00
36190;BME280;22232;50.914;13.858;2022-10-16T08:11:20;97904.75;;;18.10;100.00
36190;BME280;22232;50.914;13.858;2022-10-16T08:13:48;97906.16;;;18.02;100.00
36190;BME280;22232;50.914;13.858;2022-10-16T08:16:15;97899.38;;;18.10;100.00
36190;BME280;22232;50.914;13.858;2022-10-16T08:18:44;97890.06;;;18.31;100.00
36190;BME280;22232;50.914;13.858;2022-10-16T08:21:15;97881.06;;;18.51;100.00
36190;BME280;22232;50.914;13.858;2022-10-16T08:23:48;97888.31;;;18.56;100.00
36190;BME280;22232;50.914;13.858;2022-10-16T08:26:25;97893.91;;;18.65;100.00
36190;BME280;22232;50.914;13.858;2022-10-16T08:28:54;97887.00;;;18.53;100.00
36190;BME280;22232;50.914;13.858;2022-10-16T08:31:22;97882.34;;;18.59;100.00
36190;BME280;22232;50.914;13.858;2022-10-16T08:33:50;97891.28;;;18.60;100.00
36190;BME280;22232;50.914;13.858;2022-10-16T08:36:19;97888.81;;;18.63;100.00
36190;BME280;22232;50.914;13.858;2022-10-16T08:38:48;97899.63;;;18.63;100.00
36190;BME280;22232;50.914;13.858;2022-10-16T08:46:54;97902.53;;;18.72;100.00
36190;BME280;22232;50.914;13.858;2022-10-16T08:49:29;97900.00;;;18.91;100.00
36190;BME280;22232;50.914;13.858;2022-10-16T08:51:59;97909.06;;;19.34;100.00
36190;BME280;22232;50.914;13.858;2022-10-16T08:54:46;97909.50;;;20.00;100.00
36190;BME280;22232;50.914;13.858;2022-10-16T08:57:23;97916.22;;;20.45;100.00
36190;BME280;22232;50.914;13.858;2022-10-16T08:59:53;97907.69;;;20.76;100.00
36190;BME280;22232;50.914;13.858;2022-10-16T09:02:33;97918.00;;;20.74;100.00
36190;BME280;22232;50.914;13.858;2022-10-16T09:13:27;97898.00;;;20.70;100.00
36190;BME280;22232;50.914;13.858;2022-10-16T09:16:07;97902.03;;;20.91;100.00
36190;BME280;22232;50.914;13.858;2022-10-16T09:18:41;97904.22;;;20.70;100.00
36190;BME280;22232;50.914;13.858;2022-10-16T09:21:29;97907.16;;;20.55;100.00
36190;BME280;22232;50.914;13.858;2022-10-16T09:24:13;97911.72;;;20.35;100.00
36190;BME280;22232;50.914;13.858;2022-10-16T09:26:42;97897.00;;;20.42;100.00
36190;BME280;22232;50.914;13.858;2022-10-16T09:29:13;97902.16;;;20.43;100.00
36190;BME280;22232;50.914;13.858;2022-10-16T09:31:42;97907.75;;;20.52;100.00
36190;BME280;22232;50.914;13.858;2022-10-16T09:34:32;97907.31;;;20.64;100.00
36190;BME280;22232;50.914;13.858;2022-10-16T09:37:04;97909.28;;;20.77;100.00
36190;BME280;22232;50.914;13.858;2022-10-16T09:39:44;97912.75;;;20.64;100.00
36190;BME280;22232;50.914;13.858;2022-10-16T09:42:32;97907.19;;;20.50;100.00
36190;BME280;22232;50.914;13.858;2022-10-16T09:45:03;97917.09;;;20.40;100.00
36190;BME280;22232;50.914;13.858;2022-10-16T09:47:31;97912.03;;;20.34;100.00
36190;BME280;22232;50.914;13.858;2022-10-16T09:50:15;97918.09;;;20.26;100.00
36190;BME280;22232;50.914;13.858;2022-10-16T09:52:47;97910.38;;;20.57;100.00
36190;BME280;22232;50.914;13.858;2022-10-16T09:55:16;97913.91;;;20.76;100.00
36190;BME280;22232;50.914;13.858;2022-10-16T09:57:54;97912.03;;;20.91;100.00
36190;BME280;22232;50.914;13.858;2022-10-16T10:00:23;97922.50;;;21.16;100.00
36190;BME280;22232;50.914;13.858;2022-10-16T10:02:52;97917.69;;;21.27;100.00
36190;BME280;22232;50.914;13.858;2022-10-16T10:05:28;97928.19;;;21.15;100.00
36190;BME280;22232;50.914;13.858;2022-10-16T10:08:01;97920.97;;;21.10;100.00
36190;BME280;22232;50.914;13.858;2022-10-16T10:10:39;97931.94;;;21.19;100.00
36190;BME280;22232;50.914;13.858;2022-10-16T10:13:22;97939.56;;;21.17;100.00
36190;BME280;22232;50.914;13.858;2022-10-16T10:15:51;97933.59;;;21.01;100.00
36190;BME280;22232;50.914;13.858;2022-10-16T10:18:20;97941.72;;;21.01;100.00
36190;BME280;22232;50.914;13.858;2022-10-16T10:21:00;97942.91;;;20.76;100.00
36190;BME280;22232;50.914;13.858;2022-10-16T10:23:29;97950.47;;;20.79;100.00
36190;BME280;22232;50.914;13.858;2022-10-16T10:26:18;97964.50;;;20.62;100.00
36190;BME280;22232;50.914;13.858;2022-10-16T10:29:17;97963.34;;;20.68;100.00
36190;BME280;22232;50.914;13.858;2022-10-16T10:37:23;97973.59;;;20.90;100.00
36190;BME280;22232;50.914;13.858;2022-10-16T10:42:56;97979.81;;;20.72;100.00
36190;BME280;22232;50.914;13.858;2022-10-16T10:45:41;97960.63;;;20.87;100.00
36190;BME280;22232;50.914;13.858;2022-10-16T10:48:54;97978.81;;;20.87;100.00
36190;BME280;22232;50.914;13.858;2022-10-16T10:51:36;97979.25;;;20.94;100.00
36190;BME280;22232;50.914;13.858;2022-10-16T10:59:35;97980.91;;;21.27;100.00
36190;BME280;22232;50.914;13.858;2022-10-16T11:07:57;97994.00;;;21.72;100.00
36190;BME280;22232;50.914;13.858;2022-10-16T11:10:30;97986.19;;;21.84;100.00
36190;BME280;22232;50.914;13.858;2022-10-16T11:15:43;97988.69;;;21.81;100.00
36190;BME280;22232;50.914;13.858;2022-10-16T11:18:21;97999.03;;;21.65;100.00
36190;BME280;22232;50.914;13.858;2022-10-16T11:21:00;97994.13;;;21.67;100.00
36190;BME280;22232;50.914;13.858;2022-10-16T11:23:35;97995.66;;;21.54;100.00
36190;BME280;22232;50.914;13.858;2022-10-16T11:27:47;97998.91;;;21.56;100.00
36190;BME280;22232;50.914;13.858;2022-10-16T11:30:27;97999.19;;;21.54;100.00
36190;BME280;22232;50.914;13.858;2022-10-16T11:33:12;97992.03;;;21.45;100.00
36190;BME280;22232;50.914;13.858;2022-10-16T11:35:55;97992.22;;;21.48;100.00
36190;BME280;22232;50.914;13.858;2022-10-16T11:38:55;97990.63;;;21.47;100.00
36190;BME280;22232;50.914;13.858;2022-10-16T11:41:48;97990.63;;;21.47;100.00
36190;BME280;22232;50.914;13.858;2022-10-16T11:47:48;97996.13;;;21.61;100.00
36190;BME280;22232;50.914;13.858;2022-10-16T11:50:38;97989.81;;;21.80;100.00
36190;BME280;22232;50.914;13.858;2022-10-16T11:53:23;97995.38;;;21.88;100.00
36190;BME280;22232;50.914;13.858;2022-10-16T11:55:52;97997.88;;;21.98;100.00
36190;BME280;22232;50.914;13.858;2022-10-16T12:01:25;97999.50;;;22.13;100.00
36190;BME280;22232;50.914;13.858;2022-10-16T12:06:44;98001.72;;;21.97;100.00
36190;BME280;22232;50.914;13.858;2022-10-16T12:09:26;98001.59;;;22.03;100.00
36190;BME280;22232;50.914;13.858;2022-10-16T12:11:54;98004.13;;;22.13;100.00
36190;BME280;22232;50.914;13.858;2022-10-16T12:17:01;98008.66;;;22.04;100.00
36190;BME280;22232;50.914;13.858;2022-10-16T12:19:30;98007.81;;;21.89;100.00
36190;BME280;22232;50.914;13.858;2022-10-16T12:22:00;98005.59;;;21.77;100.00
36190;BME280;22232;50.914;13.858;2022-10-16T12:24:41;97997.72;;;21.62;100.00
36190;BME280;22232;50.914;13.858;2022-10-16T12:27:30;98010.28;;;21.39;100.00
36190;BME280;22232;50.914;13.858;2022-10-16T12:30:03;98004.81;;;21.25;100.00
36190;BME280;22232;50.914;13.858;2022-10-16T12:32:35;98013.22;;;21.24;100.00
36190;BME280;22232;50.914;13.858;2022-10-16T12:35:25;98013.22;;;21.24;100.00
36190;BME280;22232;50.914;13.858;2022-10-16T12:37:54;98011.81;;;21.26;100.00
36190;BME280;22232;50.914;13.858;2022-10-16T12:40:35;98014.84;;;21.25;100.00
36190;BME280;22232;50.914;13.858;2022-10-16T12:48:32;98016.75;;;21.43;100.00
36190;BME280;22232;50.914;13.858;2022-10-16T12:54:10;98025.91;;;21.47;100.00
36190;BME280;22232;50.914;13.858;2022-10-16T13:00:02;98027.81;;;21.47;100.00
36190;BME280;22232;50.914;13.858;2022-10-16T13:05:14;98026.56;;;21.58;100.00
36190;BME280;22232;50.914;13.858;2022-10-16T13:08:04;98024.59;;;21.45;100.00
36190;BME280;22232;50.914;13.858;2022-10-16T13:18:53;98034.59;;;21.63;100.00
36190;BME280;22232;50.914;13.858;2022-10-16T13:21:28;98034.38;;;21.60;100.00
36190;BME280;22232;50.914;13.858;2022-10-16T13:29:32;98040.47;;;21.70;100.00
36190;BME280;22232;50.914;13.858;2022-10-16T13:32:07;98035.84;;;21.85;100.00
36190;BME280;22232;50.914;13.858;2022-10-16T13:34:45;98031.38;;;22.08;100.00
36190;BME280;22232;50.914;13.858;2022-10-16T13:37:21;98026.16;;;21.97;100.00
36190;BME280;22232;50.914;13.858;2022-10-16T13:39:49;98033.47;;;21.97;100.00
36190;BME280;22232;50.914;13.858;2022-10-16T13:42:26;98029.34;;;21.86;100.00
36190;BME280;22232;50.914;13.858;2022-10-16T13:44:55;98033.75;;;21.82;100.00
36190;BME280;22232;50.914;13.858;2022-10-16T13:47:26;98034.72;;;21.72;100.00
36190;BME280;22232;50.914;13.858;2022-10-16T13:50:06;98035.91;;;21.66;100.00
36190;BME280;22232;50.914;13.858;2022-10-16T13:52:33;98040.13;;;21.58;100.00
36190;BME280;22232;50.914;13.858;2022-10-16T13:55:01;98041.06;;;21.48;100.00
36190;BME280;22232;50.914;13.858;2022-10-16T13:57:29;98047.41;;;21.25;100.00
36190;BME280;22232;50.914;13.858;2022-10-16T13:59:56;98034.28;;;21.13;100.00
36190;BME280;22232;50.914;13.858;2022-10-16T14:02:27;98032.13;;;20.72;100.00
36190;BME280;22232;50.914;13.858;2022-10-16T14:04:57;98051.44;;;20.66;100.00
36190;BME280;22232;50.914;13.858;2022-10-16T14:07:31;98047.50;;;20.58;100.00
36190;BME280;22232;50.914;13.858;2022-10-16T14:10:03;98048.81;;;20.36;100.00
36190;BME280;22232;50.914;13.858;2022-10-16T14:12:32;98053.97;;;20.09;100.00
36190;BME280;22232;50.914;13.858;2022-10-16T14:15:01;98075.41;;;19.71;100.00
36190;BME280;22232;50.914;13.858;2022-10-16T14:17:33;98070.53;;;19.34;100.00
36190;BME280;22232;50.914;13.858;2022-10-16T14:20:05;98065.97;;;19.29;100.00
36190;BME280;22232;50.914;13.858;2022-10-16T14:22:40;98066.25;;;19.28;100.00
36190;BME280;22232;50.914;13.858;2022-10-16T14:25:23;98066.22;;;19.33;100.00
36190;BME280;22232;50.914;13.858;2022-10-16T14:28:01;98070.78;;;19.37;100.00
36190;BME280;22232;50.914;13.858;2022-10-16T14:30:32;98077.28;;;19.36;100.00
36190;BME280;22232;50.914;13.858;2022-10-16T14:33:04;98065.84;;;19.44;100.00
36190;BME280;22232;50.914;13.858;2022-10-16T14:35:37;98064.69;;;19.56;100.00
36190;BME280;22232;50.914;13.858;2022-10-16T14:38:17;98068.41;;;19.70;100.00